Terminal Aerodrome Forecast
Issued by NWS Lake Charles, LA

Home | Current Version | Previous Version | Text Only | Print | Product List | Glossary On
Versions: 1 2 3 4 5 6 7 8 9 10 11 12 13
450
FTUS44 KLCH 261138
TAFBPT
TAF
KBPT 261138Z 2612/2712 VRB03KT P6SM VCSH FEW025 BKN250
     FM261600 04007KT P6SM VCTS FEW020CB BKN050
     FM270100 01009KT P6SM VCSH FEW015 BKN040=

USA.gov is the U.S. government's official web portal to all federal, state and local government web resources and services.